sensor_id;sensor_type;location;lat;lon;timestamp;pressure;altitude;pressure_sealevel;temperature;humidity
41040;BME280;48586;50.122;18.972;2023-10-08T00:01:21;98250.03;;;14.64;50.06
41040;BME280;48586;50.122;18.972;2023-10-08T00:04:26;98253.94;;;14.61;50.40
41040;BME280;48586;50.122;18.972;2023-10-08T00:07:31;98268.25;;;14.62;50.44
41040;BME280;48586;50.122;18.972;2023-10-08T00:10:36;98261.03;;;14.54;50.89
41040;BME280;48586;50.122;18.972;2023-10-08T00:13:44;98274.00;;;14.59;51.44
41040;BME280;48586;50.122;18.972;2023-10-08T00:16:52;98277.75;;;14.50;53.33
41040;BME280;48586;50.122;18.972;2023-10-08T00:19:57;98270.50;;;14.27;54.31
41040;BME280;48586;50.122;18.972;2023-10-08T00:23:02;98283.78;;;13.98;56.06
41040;BME280;48586;50.122;18.972;2023-10-08T00:26:09;98282.06;;;13.74;57.92
41040;BME280;48586;50.122;18.972;2023-10-08T00:29:14;98288.84;;;13.45;58.90
41040;BME280;48586;50.122;18.972;2023-10-08T00:32:25;98286.38;;;13.28;60.79
41040;BME280;48586;50.122;18.972;2023-10-08T00:35:30;98286.72;;;13.25;61.87
41040;BME280;48586;50.122;18.972;2023-10-08T00:38:36;98289.94;;;13.20;62.05
41040;BME280;48586;50.122;18.972;2023-10-08T00:41:45;98275.50;;;13.13;62.80
41040;BME280;48586;50.122;18.972;2023-10-08T00:44:52;98286.91;;;13.15;62.98
41040;BME280;48586;50.122;18.972;2023-10-08T00:47:59;98291.13;;;13.09;63.27
41040;BME280;48586;50.122;18.972;2023-10-08T00:51:05;98280.56;;;13.00;63.28
41040;BME280;48586;50.122;18.972;2023-10-08T00:54:26;98289.28;;;12.93;63.35
41040;BME280;48586;50.122;18.972;2023-10-08T00:57:36;98301.41;;;12.98;63.44
41040;BME280;48586;50.122;18.972;2023-10-08T01:00:43;98286.44;;;12.95;63.14
41040;BME280;48586;50.122;18.972;2023-10-08T01:03:53;98281.94;;;12.87;63.23
41040;BME280;48586;50.122;18.972;2023-10-08T01:06:58;98273.50;;;12.74;63.06
41040;BME280;48586;50.122;18.972;2023-10-08T01:10:12;98276.72;;;12.70;63.58
41040;BME280;48586;50.122;18.972;2023-10-08T01:13:20;98269.28;;;12.63;63.44
41040;BME280;48586;50.122;18.972;2023-10-08T01:16:28;98276.50;;;12.63;63.32
41040;BME280;48586;50.122;18.972;2023-10-08T01:19:38;98278.34;;;12.62;63.15
41040;BME280;48586;50.122;18.972;2023-10-08T01:22:49;98278.03;;;12.66;63.69
41040;BME280;48586;50.122;18.972;2023-10-08T01:25:54;98279.41;;;12.70;63.26
41040;BME280;48586;50.122;18.972;2023-10-08T01:29:12;98274.34;;;12.67;63.22
41040;BME280;48586;50.122;18.972;2023-10-08T01:32:22;98271.66;;;12.67;63.19
41040;BME280;48586;50.122;18.972;2023-10-08T01:35:28;98267.63;;;12.62;63.63
41040;BME280;48586;50.122;18.972;2023-10-08T01:38:35;98278.03;;;12.66;63.33
41040;BME280;48586;50.122;18.972;2023-10-08T01:41:44;98246.13;;;12.62;63.74
41040;BME280;48586;50.122;18.972;2023-10-08T01:44:52;98254.19;;;12.62;63.87
41040;BME280;48586;50.122;18.972;2023-10-08T01:47:57;98260.91;;;12.67;63.34
41040;BME280;48586;50.122;18.972;2023-10-08T01:51:02;98276.06;;;12.76;63.42
41040;BME280;48586;50.122;18.972;2023-10-08T01:54:16;98265.97;;;12.78;63.52
41040;BME280;48586;50.122;18.972;2023-10-08T01:57:22;98265.81;;;12.79;63.10
41040;BME280;48586;50.122;18.972;2023-10-08T02:00:27;98284.44;;;12.81;62.83
41040;BME280;48586;50.122;18.972;2023-10-08T02:03:32;98293.16;;;12.75;61.28
41040;BME280;48586;50.122;18.972;2023-10-08T02:06:39;98295.50;;;12.45;59.71
41040;BME280;48586;50.122;18.972;2023-10-08T02:09:46;98312.72;;;12.26;59.65
41040;BME280;48586;50.122;18.972;2023-10-08T02:12:52;98298.56;;;12.00;59.13
41040;BME280;48586;50.122;18.972;2023-10-08T02:15:56;98323.78;;;11.73;59.01
41040;BME280;48586;50.122;18.972;2023-10-08T02:19:02;98314.88;;;11.38;59.47
41040;BME280;48586;50.122;18.972;2023-10-08T02:22:07;98320.06;;;11.14;60.04
41040;BME280;48586;50.122;18.972;2023-10-08T02:25:16;98325.34;;;10.98;60.83
41040;BME280;48586;50.122;18.972;2023-10-08T02:28:21;98337.81;;;10.89;60.86
41040;BME280;48586;50.122;18.972;2023-10-08T02:31:27;98326.50;;;10.77;60.52
41040;BME280;48586;50.122;18.972;2023-10-08T02:34:32;98329.03;;;10.61;61.14
41040;BME280;48586;50.122;18.972;2023-10-08T02:37:37;98329.31;;;10.58;61.38
41040;BME280;48586;50.122;18.972;2023-10-08T02:40:45;98343.69;;;10.57;61.76
41040;BME280;48586;50.122;18.972;2023-10-08T02:43:51;98331.00;;;10.59;61.02
41040;BME280;48586;50.122;18.972;2023-10-08T02:47:00;98361.16;;;10.61;61.48
41040;BME280;48586;50.122;18.972;2023-10-08T02:50:06;98356.09;;;10.58;61.68
41040;BME280;48586;50.122;18.972;2023-10-08T02:53:11;98342.34;;;10.53;59.89
41040;BME280;48586;50.122;18.972;2023-10-08T02:56:23;98360.44;;;10.41;59.95
41040;BME280;48586;50.122;18.972;2023-10-08T02:59:33;98340.00;;;10.22;60.54
41040;BME280;48586;50.122;18.972;2023-10-08T03:02:43;98367.56;;;10.32;61.30
41040;BME280;48586;50.122;18.972;2023-10-08T03:05:49;98375.28;;;10.36;60.97
41040;BME280;48586;50.122;18.972;2023-10-08T03:08:59;98377.25;;;10.33;60.84
41040;BME280;48586;50.122;18.972;2023-10-08T03:12:08;98387.97;;;10.33;60.57
41040;BME280;48586;50.122;18.972;2023-10-08T03:15:15;98405.56;;;10.36;60.65
41040;BME280;48586;50.122;18.972;2023-10-08T03:18:30;98409.22;;;10.35;60.62
41040;BME280;48586;50.122;18.972;2023-10-08T03:21:38;98420.78;;;10.36;60.71
41040;BME280;48586;50.122;18.972;2023-10-08T03:24:53;98409.81;;;10.29;60.13
41040;BME280;48586;50.122;18.972;2023-10-08T03:28:02;98397.88;;;10.23;60.79
41040;BME280;48586;50.122;18.972;2023-10-08T03:31:09;98410.47;;;10.13;60.31
41040;BME280;48586;50.122;18.972;2023-10-08T03:34:21;98408.53;;;10.05;60.79
41040;BME280;48586;50.122;18.972;2023-10-08T03:37:30;98433.91;;;10.01;60.73
41040;BME280;48586;50.122;18.972;2023-10-08T03:40:46;98465.59;;;9.96;60.37
41040;BME280;48586;50.122;18.972;2023-10-08T03:43:54;98471.38;;;9.92;60.09
41040;BME280;48586;50.122;18.972;2023-10-08T03:47:03;98468.03;;;9.80;60.09
41040;BME280;48586;50.122;18.972;2023-10-08T03:50:12;98459.06;;;9.71;60.83
41040;BME280;48586;50.122;18.972;2023-10-08T03:53:19;98462.28;;;9.75;60.65
41040;BME280;48586;50.122;18.972;2023-10-08T03:56:27;98478.16;;;9.76;60.84
41040;BME280;48586;50.122;18.972;2023-10-08T03:59:35;98489.00;;;9.75;61.12
41040;BME280;48586;50.122;18.972;2023-10-08T04:02:42;98496.78;;;9.68;60.60
41040;BME280;48586;50.122;18.972;2023-10-08T04:05:48;98502.13;;;9.68;61.47
41040;BME280;48586;50.122;18.972;2023-10-08T04:09:05;98506.34;;;9.61;60.32
41040;BME280;48586;50.122;18.972;2023-10-08T04:12:18;98506.66;;;9.58;61.08
41040;BME280;48586;50.122;18.972;2023-10-08T04:15:25;98522.81;;;9.57;60.96
41040;BME280;48586;50.122;18.972;2023-10-08T04:18:30;98524.09;;;9.53;60.78
41040;BME280;48586;50.122;18.972;2023-10-08T04:21:41;98566.31;;;9.49;61.17
41040;BME280;48586;50.122;18.972;2023-10-08T04:24:46;98565.28;;;9.40;60.77
41040;BME280;48586;50.122;18.972;2023-10-08T04:27:51;98557.69;;;9.36;61.25
41040;BME280;48586;50.122;18.972;2023-10-08T04:31:02;98559.63;;;9.34;60.37
41040;BME280;48586;50.122;18.972;2023-10-08T04:34:16;98571.91;;;9.27;60.44
41040;BME280;48586;50.122;18.972;2023-10-08T04:37:24;98584.53;;;9.25;60.44
41040;BME280;48586;50.122;18.972;2023-10-08T04:40:33;98595.50;;;9.22;60.50
41040;BME280;48586;50.122;18.972;2023-10-08T04:43:45;98603.94;;;9.17;60.67
41040;BME280;48586;50.122;18.972;2023-10-08T04:46:53;98589.03;;;9.14;60.23
41040;BME280;48586;50.122;18.972;2023-10-08T04:50:07;98609.28;;;9.17;60.78
41040;BME280;48586;50.122;18.972;2023-10-08T04:53:16;98608.28;;;9.08;60.23
41040;BME280;48586;50.122;18.972;2023-10-08T04:56:30;98620.09;;;9.15;60.77
41040;BME280;48586;50.122;18.972;2023-10-08T04:59:34;98628.38;;;9.12;60.06
41040;BME280;48586;50.122;18.972;2023-10-08T05:02:42;98643.00;;;9.08;60.18
41040;BME280;48586;50.122;18.972;2023-10-08T05:05:55;98654.22;;;9.02;60.40
41040;BME280;48586;50.122;18.972;2023-10-08T05:09:12;98647.69;;;8.85;59.73
41040;BME280;48586;50.122;18.972;2023-10-08T05:12:23;98662.66;;;8.98;60.25
41040;BME280;48586;50.122;18.972;2023-10-08T05:15:36;98666.97;;;8.89;60.09
41040;BME280;48586;50.122;18.972;2023-10-08T05:18:45;98657.22;;;8.78;60.32
41040;BME280;48586;50.122;18.972;2023-10-08T05:22:17;98638.34;;;8.70;60.52
41040;BME280;48586;50.122;18.972;2023-10-08T05:25:42;98643.97;;;8.67;60.37
41040;BME280;48586;50.122;18.972;2023-10-08T05:28:59;98660.91;;;8.56;60.98
41040;BME280;48586;50.122;18.972;2023-10-08T05:32:27;98675.69;;;8.60;61.66
41040;BME280;48586;50.122;18.972;2023-10-08T05:35:45;98690.75;;;8.62;61.37
41040;BME280;48586;50.122;18.972;2023-10-08T05:38:55;98698.63;;;8.63;61.00
41040;BME280;48586;50.122;18.972;2023-10-08T05:42:03;98709.84;;;8.67;61.46
41040;BME280;48586;50.122;18.972;2023-10-08T05:45:14;98724.91;;;8.68;61.28
41040;BME280;48586;50.122;18.972;2023-10-08T05:48:31;98739.22;;;8.67;61.30
41040;BME280;48586;50.122;18.972;2023-10-08T05:51:48;98740.91;;;8.68;61.45
41040;BME280;48586;50.122;18.972;2023-10-08T05:55:13;98747.09;;;8.68;61.59
41040;BME280;48586;50.122;18.972;2023-10-08T05:58:26;98743.28;;;8.61;61.14
41040;BME280;48586;50.122;18.972;2023-10-08T06:01:38;98734.22;;;8.52;61.37
41040;BME280;48586;50.122;18.972;2023-10-08T06:04:47;98745.88;;;8.51;61.57
41040;BME280;48586;50.122;18.972;2023-10-08T06:08:15;98748.84;;;8.37;61.46
41040;BME280;48586;50.122;18.972;2023-10-08T06:11:40;98774.91;;;8.45;61.74
41040;BME280;48586;50.122;18.972;2023-10-08T06:14:59;98785.44;;;8.46;61.71
41040;BME280;48586;50.122;18.972;2023-10-08T06:18:13;98802.44;;;8.45;62.07
41040;BME280;48586;50.122;18.972;2023-10-08T06:21:17;98799.75;;;8.45;62.19
41040;BME280;48586;50.122;18.972;2023-10-08T06:24:24;98805.09;;;8.45;61.31
41040;BME280;48586;50.122;18.972;2023-10-08T06:27:30;98809.00;;;8.41;61.54
41040;BME280;48586;50.122;18.972;2023-10-08T06:30:36;98814.78;;;8.46;61.44
41040;BME280;48586;50.122;18.972;2023-10-08T06:33:44;98820.72;;;8.50;62.02
41040;BME280;48586;50.122;18.972;2023-10-08T06:36:50;98817.81;;;8.53;61.46
41040;BME280;48586;50.122;18.972;2023-10-08T06:40:00;98821.06;;;8.56;61.11
41040;BME280;48586;50.122;18.972;2023-10-08T06:43:24;98846.50;;;8.60;61.70
41040;BME280;48586;50.122;18.972;2023-10-08T06:46:30;98850.34;;;8.68;61.45
41040;BME280;48586;50.122;18.972;2023-10-08T06:49:36;98854.84;;;8.67;60.72
41040;BME280;48586;50.122;18.972;2023-10-08T06:52:41;98860.59;;;8.63;59.76
41040;BME280;48586;50.122;18.972;2023-10-08T06:55:50;98865.88;;;8.42;60.05
41040;BME280;48586;50.122;18.972;2023-10-08T06:58:58;98860.69;;;8.40;60.65
41040;BME280;48586;50.122;18.972;2023-10-08T07:02:03;98858.47;;;8.45;60.69
41040;BME280;48586;50.122;18.972;2023-10-08T07:05:10;98875.59;;;8.43;59.92
41040;BME280;48586;50.122;18.972;2023-10-08T07:08:15;98872.97;;;8.31;60.35
41040;BME280;48586;50.122;18.972;2023-10-08T07:11:24;98884.13;;;8.25;59.97
41040;BME280;48586;50.122;18.972;2023-10-08T07:14:30;98887.63;;;8.15;61.44
41040;BME280;48586;50.122;18.972;2023-10-08T07:17:36;98886.81;;;8.03;60.40
41040;BME280;48586;50.122;18.972;2023-10-08T07:20:45;98903.19;;;7.98;61.75
41040;BME280;48586;50.122;18.972;2023-10-08T07:23:57;98905.22;;;7.95;61.82
41040;BME280;48586;50.122;18.972;2023-10-08T07:27:05;98908.25;;;8.01;61.62
41040;BME280;48586;50.122;18.972;2023-10-08T07:30:11;98910.47;;;8.19;60.69
41040;BME280;48586;50.122;18.972;2023-10-08T07:33:29;98924.72;;;8.29;62.12
41040;BME280;48586;50.122;18.972;2023-10-08T07:36:40;98914.38;;;8.47;60.70
41040;BME280;48586;50.122;18.972;2023-10-08T07:39:45;98918.25;;;8.54;60.51
41040;BME280;48586;50.122;18.972;2023-10-08T07:42:58;98926.00;;;8.57;61.90
41040;BME280;48586;50.122;18.972;2023-10-08T07:46:10;98938.84;;;8.63;59.84
41040;BME280;48586;50.122;18.972;2023-10-08T07:49:21;98932.78;;;8.61;60.01
41040;BME280;48586;50.122;18.972;2023-10-08T07:52:28;98943.59;;;8.48;60.01
41040;BME280;48586;50.122;18.972;2023-10-08T07:55:34;98951.19;;;8.32;60.06
41040;BME280;48586;50.122;18.972;2023-10-08T07:58:42;98949.47;;;8.31;60.43
41040;BME280;48586;50.122;18.972;2023-10-08T08:01:50;98959.78;;;8.13;60.20
41040;BME280;48586;50.122;18.972;2023-10-08T08:04:57;98964.72;;;8.07;60.37
41040;BME280;48586;50.122;18.972;2023-10-08T08:08:06;98971.16;;;8.04;61.76
41040;BME280;48586;50.122;18.972;2023-10-08T08:11:12;98982.44;;;8.08;61.92
41040;BME280;48586;50.122;18.972;2023-10-08T08:14:22;98988.16;;;8.25;62.42
41040;BME280;48586;50.122;18.972;2023-10-08T08:17:30;98991.50;;;8.50;62.16
41040;BME280;48586;50.122;18.972;2023-10-08T08:20:36;98993.28;;;8.83;62.31
41040;BME280;48586;50.122;18.972;2023-10-08T08:23:47;98997.50;;;9.17;61.04
41040;BME280;48586;50.122;18.972;2023-10-08T08:26:54;98992.41;;;9.35;58.85
41040;BME280;48586;50.122;18.972;2023-10-08T08:30:13;98994.69;;;9.51;58.05
41040;BME280;48586;50.122;18.972;2023-10-08T08:33:21;98988.91;;;9.76;58.70
41040;BME280;48586;50.122;18.972;2023-10-08T08:36:31;98989.53;;;10.11;59.05
41040;BME280;48586;50.122;18.972;2023-10-08T08:39:40;98988.38;;;10.44;57.50
41040;BME280;48586;50.122;18.972;2023-10-08T08:42:46;98986.34;;;10.67;55.95
41040;BME280;48586;50.122;18.972;2023-10-08T08:45:57;98993.28;;;10.88;55.09
41040;BME280;48586;50.122;18.972;2023-10-08T08:49:07;98990.59;;;10.88;53.68
41040;BME280;48586;50.122;18.972;2023-10-08T08:52:15;99000.47;;;10.88;52.60
41040;BME280;48586;50.122;18.972;2023-10-08T08:55:22;98993.28;;;10.88;53.42
41040;BME280;48586;50.122;18.972;2023-10-08T08:58:31;99015.13;;;10.94;52.22
41040;BME280;48586;50.122;18.972;2023-10-08T09:01:41;99012.34;;;10.95;50.76
41040;BME280;48586;50.122;18.972;2023-10-08T09:04:52;99023.00;;;10.76;51.20
41040;BME280;48586;50.122;18.972;2023-10-08T09:07:59;99022.72;;;10.79;51.64
41040;BME280;48586;50.122;18.972;2023-10-08T09:11:07;99026.41;;;10.78;51.10
41040;BME280;48586;50.122;18.972;2023-10-08T09:14:12;99026.56;;;11.05;52.19
41040;BME280;48586;50.122;18.972;2023-10-08T09:17:21;99031.78;;;11.26;47.22
41040;BME280;48586;50.122;18.972;2023-10-08T09:20:26;99033.22;;;11.40;47.75
41040;BME280;48586;50.122;18.972;2023-10-08T09:23:33;99029.41;;;11.62;48.17
41040;BME280;48586;50.122;18.972;2023-10-08T09:26:38;99046.47;;;11.61;47.33
41040;BME280;48586;50.122;18.972;2023-10-08T09:29:46;99045.06;;;11.76;47.64
41040;BME280;48586;50.122;18.972;2023-10-08T09:32:54;99047.84;;;12.03;48.01
41040;BME280;48586;50.122;18.972;2023-10-08T09:36:01;99051.31;;;12.23;46.95
41040;BME280;48586;50.122;18.972;2023-10-08T09:39:09;99050.22;;;12.44;45.21
41040;BME280;48586;50.122;18.972;2023-10-08T09:42:26;99049.91;;;12.56;44.53
41040;BME280;48586;50.122;18.972;2023-10-08T09:45:34;99053.81;;;12.72;41.61
41040;BME280;48586;50.122;18.972;2023-10-08T09:48:49;99059.72;;;13.03;42.13
41040;BME280;48586;50.122;18.972;2023-10-08T09:52:00;99062.13;;;13.24;40.21
41040;BME280;48586;50.122;18.972;2023-10-08T09:55:09;99057.44;;;13.43;36.67
41040;BME280;48586;50.122;18.972;2023-10-08T09:58:17;99056.91;;;13.75;39.53
41040;BME280;48586;50.122;18.972;2023-10-08T10:01:26;99069.81;;;14.16;36.57
41040;BME280;48586;50.122;18.972;2023-10-08T10:04:43;99067.31;;;14.48;37.48
41040;BME280;48586;50.122;18.972;2023-10-08T10:07:54;99057.84;;;14.70;33.38
41040;BME280;48586;50.122;18.972;2023-10-08T10:11:02;99075.66;;;14.63;34.27
41040;BME280;48586;50.122;18.972;2023-10-08T10:14:09;99078.38;;;14.45;33.78
41040;BME280;48586;50.122;18.972;2023-10-08T10:17:17;99075.84;;;14.35;32.30
41040;BME280;48586;50.122;18.972;2023-10-08T10:20:32;99082.81;;;14.54;32.95
41040;BME280;48586;50.122;18.972;2023-10-08T10:23:39;99089.06;;;14.55;30.30
41040;BME280;48586;50.122;18.972;2023-10-08T10:26:48;99091.81;;;14.63;30.77
41040;BME280;48586;50.122;18.972;2023-10-08T10:30:02;99108.22;;;14.70;30.90
41040;BME280;48586;50.122;18.972;2023-10-08T10:33:11;99100.84;;;14.88;31.41
41040;BME280;48586;50.122;18.972;2023-10-08T10:36:21;99090.84;;;15.14;32.74
41040;BME280;48586;50.122;18.972;2023-10-08T10:39:28;99107.94;;;15.39;29.48
41040;BME280;48586;50.122;18.972;2023-10-08T10:42:34;99116.25;;;15.46;30.40
41040;BME280;48586;50.122;18.972;2023-10-08T10:45:45;99105.97;;;15.49;28.39
41040;BME280;48586;50.122;18.972;2023-10-08T10:48:51;99107.34;;;15.86;30.02
41040;BME280;48586;50.122;18.972;2023-10-08T10:52:12;99105.31;;;16.13;28.87
41040;BME280;48586;50.122;18.972;2023-10-08T10:55:20;99109.19;;;16.26;25.93
41040;BME280;48586;50.122;18.972;2023-10-08T10:58:33;99117.44;;;16.25;26.15
41040;BME280;48586;50.122;18.972;2023-10-08T11:01:42;99116.81;;;16.31;25.35
41040;BME280;48586;50.122;18.972;2023-10-08T11:04:49;99110.19;;;16.42;27.36
41040;BME280;48586;50.122;18.972;2023-10-08T11:07:59;99114.84;;;16.72;25.50
41040;BME280;48586;50.122;18.972;2023-10-08T11:11:10;99121.88;;;16.89;26.80
41040;BME280;48586;50.122;18.972;2023-10-08T11:14:19;99122.63;;;17.22;26.65
41040;BME280;48586;50.122;18.972;2023-10-08T11:17:26;99134.22;;;17.31;25.27
41040;BME280;48586;50.122;18.972;2023-10-08T11:20:30;99129.72;;;17.23;24.31
41040;BME280;48586;50.122;18.972;2023-10-08T11:23:47;99133.44;;;17.22;24.15
41040;BME280;48586;50.122;18.972;2023-10-08T11:26:58;99129.41;;;17.49;25.64
41040;BME280;48586;50.122;18.972;2023-10-08T11:30:31;99134.56;;;17.36;23.56
41040;BME280;48586;50.122;18.972;2023-10-08T11:33:39;99129.50;;;17.33;25.07
41040;BME280;48586;50.122;18.972;2023-10-08T11:36:56;99133.94;;;17.80;25.25
41040;BME280;48586;50.122;18.972;2023-10-08T11:40:08;99135.78;;;18.25;23.78
41040;BME280;48586;50.122;18.972;2023-10-08T11:43:20;99133.44;;;18.60;23.07
41040;BME280;48586;50.122;18.972;2023-10-08T11:46:27;99122.13;;;19.01;21.43
41040;BME280;48586;50.122;18.972;2023-10-08T11:49:41;99123.69;;;19.10;22.18
41040;BME280;48586;50.122;18.972;2023-10-08T11:52:52;99133.44;;;18.89;20.56
41040;BME280;48586;50.122;18.972;2023-10-08T11:56:02;99130.94;;;18.35;19.11
41040;BME280;48586;50.122;18.972;2023-10-08T11:59:14;99141.31;;;17.63;19.93
41040;BME280;48586;50.122;18.972;2023-10-08T12:02:21;99132.94;;;17.50;21.02
41040;BME280;48586;50.122;18.972;2023-10-08T12:05:25;99149.25;;;17.65;20.81
41040;BME280;48586;50.122;18.972;2023-10-08T12:08:31;99145.59;;;17.89;21.91
41040;BME280;48586;50.122;18.972;2023-10-08T12:11:44;99134.13;;;18.39;21.30
41040;BME280;48586;50.122;18.972;2023-10-08T12:14:50;99142.81;;;18.87;21.34
41040;BME280;48586;50.122;18.972;2023-10-08T12:17:56;99154.09;;;19.20;19.81
41040;BME280;48586;50.122;18.972;2023-10-08T12:21:18;99150.69;;;19.62;21.88
41040;BME280;48586;50.122;18.972;2023-10-08T12:24:24;99163.94;;;19.72;18.21
41040;BME280;48586;50.122;18.972;2023-10-08T12:27:32;99153.00;;;20.01;20.91
41040;BME280;48586;50.122;18.972;2023-10-08T12:30:38;99163.69;;;20.52;19.92
41040;BME280;48586;50.122;18.972;2023-10-08T12:33:48;99156.09;;;20.48;16.93
41040;BME280;48586;50.122;18.972;2023-10-08T12:36:59;99167.38;;;20.45;18.10
41040;BME280;48586;50.122;18.972;2023-10-08T12:40:07;99162.75;;;20.66;18.46
41040;BME280;48586;50.122;18.972;2023-10-08T12:43:26;99166.06;;;20.90;18.79
41040;BME280;48586;50.122;18.972;2023-10-08T12:46:33;99166.94;;;20.97;19.39
41040;BME280;48586;50.122;18.972;2023-10-08T12:49:39;99175.16;;;21.38;17.14
41040;BME280;48586;50.122;18.972;2023-10-08T12:52:50;99165.53;;;21.42;16.39
41040;BME280;48586;50.122;18.972;2023-10-08T12:55:59;99182.94;;;21.07;16.59
41040;BME280;48586;50.122;18.972;2023-10-08T12:59:11;99185.53;;;20.93;16.00
41040;BME280;48586;50.122;18.972;2023-10-08T13:02:22;99189.84;;;19.89;16.27
41040;BME280;48586;50.122;18.972;2023-10-08T13:05:30;99191.59;;;19.97;19.01
41040;BME280;48586;50.122;18.972;2023-10-08T13:08:35;99184.06;;;20.63;18.71
41040;BME280;48586;50.122;18.972;2023-10-08T13:11:41;99187.34;;;21.14;19.55
41040;BME280;48586;50.122;18.972;2023-10-08T13:14:50;99178.09;;;21.43;16.59
41040;BME280;48586;50.122;18.972;2023-10-08T13:17:57;99184.47;;;21.22;17.93
41040;BME280;48586;50.122;18.972;2023-10-08T13:21:05;99184.88;;;21.67;17.98
41040;BME280;48586;50.122;18.972;2023-10-08T13:24:12;99184.56;;;21.97;16.92
41040;BME280;48586;50.122;18.972;2023-10-08T13:27:19;99194.91;;;22.28;16.19
41040;BME280;48586;50.122;18.972;2023-10-08T13:30:30;99202.25;;;22.41;16.95
41040;BME280;48586;50.122;18.972;2023-10-08T13:33:36;99200.84;;;21.70;16.60
41040;BME280;48586;50.122;18.972;2023-10-08T13:36:45;99217.69;;;22.00;16.04
41040;BME280;48586;50.122;18.972;2023-10-08T13:39:52;99214.25;;;21.31;16.08
41040;BME280;48586;50.122;18.972;2023-10-08T13:42:58;99209.94;;;21.43;17.04
41040;BME280;48586;50.122;18.972;2023-10-08T13:46:09;99226.31;;;21.15;16.97
41040;BME280;48586;50.122;18.972;2023-10-08T13:49:15;99216.88;;;21.11;16.74
41040;BME280;48586;50.122;18.972;2023-10-08T13:52:20;99228.25;;;21.21;16.66
41040;BME280;48586;50.122;18.972;2023-10-08T13:55:29;99220.16;;;21.00;15.72
41040;BME280;48586;50.122;18.972;2023-10-08T13:58:34;99232.44;;;20.67;17.62
41040;BME280;48586;50.122;18.972;2023-10-08T14:01:46;99231.41;;;20.68;17.99
41040;BME280;48586;50.122;18.972;2023-10-08T14:04:53;99243.28;;;20.18;15.70
41040;BME280;48586;50.122;18.972;2023-10-08T14:07:59;99250.41;;;19.83;17.40
41040;BME280;48586;50.122;18.972;2023-10-08T14:11:11;99247.53;;;19.26;17.43
41040;BME280;48586;50.122;18.972;2023-10-08T14:14:17;99249.78;;;19.07;18.92
41040;BME280;48586;50.122;18.972;2023-10-08T14:17:28;99252.22;;;19.17;17.94
41040;BME280;48586;50.122;18.972;2023-10-08T14:20:45;99254.34;;;19.21;18.15
41040;BME280;48586;50.122;18.972;2023-10-08T14:23:56;99257.16;;;18.99;18.63
41040;BME280;48586;50.122;18.972;2023-10-08T14:27:06;99250.56;;;18.78;19.21
41040;BME280;48586;50.122;18.972;2023-10-08T14:30:17;99258.81;;;18.85;19.39
41040;BME280;48586;50.122;18.972;2023-10-08T14:33:29;99249.00;;;18.84;19.47
41040;BME280;48586;50.122;18.972;2023-10-08T14:36:44;99255.22;;;18.47;17.72
41040;BME280;48586;50.122;18.972;2023-10-08T14:40:04;99267.50;;;18.57;18.71
41040;BME280;48586;50.122;18.972;2023-10-08T14:43:23;99266.31;;;18.83;18.89
41040;BME280;48586;50.122;18.972;2023-10-08T14:46:33;99276.16;;;19.13;18.93
41040;BME280;48586;50.122;18.972;2023-10-08T14:49:41;99270.69;;;19.36;20.47
41040;BME280;48586;50.122;18.972;2023-10-08T14:52:49;99287.56;;;19.46;18.42
41040;BME280;48586;50.122;18.972;2023-10-08T14:55:54;99290.06;;;19.48;18.59
41040;BME280;48586;50.122;18.972;2023-10-08T14:59:01;99289.19;;;19.03;18.31
41040;BME280;48586;50.122;18.972;2023-10-08T15:02:06;99298.19;;;18.35;20.14
41040;BME280;48586;50.122;18.972;2023-10-08T15:05:15;99305.53;;;17.56;20.90
41040;BME280;48586;50.122;18.972;2023-10-08T15:08:20;99301.25;;;16.82;21.16
41040;BME280;48586;50.122;18.972;2023-10-08T15:11:26;99304.75;;;16.17;22.35
41040;BME280;48586;50.122;18.972;2023-10-08T15:14:32;99315.22;;;15.70;23.03
41040;BME280;48586;50.122;18.972;2023-10-08T15:17:41;99320.63;;;15.10;23.58
41040;BME280;48586;50.122;18.972;2023-10-08T15:20:50;99315.84;;;14.60;24.56
41040;BME280;48586;50.122;18.972;2023-10-08T15:23:55;99327.41;;;14.07;24.74
41040;BME280;48586;50.122;18.972;2023-10-08T15:27:04;99339.25;;;13.59;26.00
41040;BME280;48586;50.122;18.972;2023-10-08T15:30:14;99352.09;;;13.28;25.84
41040;BME280;48586;50.122;18.972;2023-10-08T15:33:21;99369.00;;;13.01;26.82
41040;BME280;48586;50.122;18.972;2023-10-08T15:36:31;99376.91;;;12.64;27.31
41040;BME280;48586;50.122;18.972;2023-10-08T15:39:36;99374.06;;;12.27;27.02
41040;BME280;48586;50.122;18.972;2023-10-08T15:42:44;99379.47;;;11.87;28.00
41040;BME280;48586;50.122;18.972;2023-10-08T15:45:52;99378.75;;;11.54;28.60
41040;BME280;48586;50.122;18.972;2023-10-08T15:48:57;99373.69;;;11.30;30.24
41040;BME280;48586;50.122;18.972;2023-10-08T15:52:06;99368.63;;;11.06;28.99
41040;BME280;48586;50.122;18.972;2023-10-08T15:55:12;99366.50;;;10.68;30.48
41040;BME280;48586;50.122;18.972;2023-10-08T15:58:16;99374.34;;;10.49;31.21
41040;BME280;48586;50.122;18.972;2023-10-08T16:01:25;99377.19;;;10.36;31.28
41040;BME280;48586;50.122;18.972;2023-10-08T16:04:31;99389.19;;;10.21;31.55
41040;BME280;48586;50.122;18.972;2023-10-08T16:07:40;99385.19;;;10.04;32.14
41040;BME280;48586;50.122;18.972;2023-10-08T16:10:44;99391.53;;;9.92;31.99
41040;BME280;48586;50.122;18.972;2023-10-08T16:13:50;99397.25;;;9.76;32.84
41040;BME280;48586;50.122;18.972;2023-10-08T16:16:55;99400.78;;;9.65;33.27
41040;BME280;48586;50.122;18.972;2023-10-08T16:20:01;99395.69;;;9.51;33.68
41040;BME280;48586;50.122;18.972;2023-10-08T16:23:17;99405.72;;;9.36;33.89
41040;BME280;48586;50.122;18.972;2023-10-08T16:26:25;99409.81;;;9.18;34.09
41040;BME280;48586;50.122;18.972;2023-10-08T16:29:30;99417.16;;;8.92;34.75
41040;BME280;48586;50.122;18.972;2023-10-08T16:32:40;99417.81;;;8.72;35.45